Time;durP1;ratioP1;P1;durP2;ratioP2;P2;SDS_P1;SDS_P2;PMS_P1;PMS_P2;Temp;Humidity;BMP_temperature;BMP_pressure;BME280_temperature;BME280_humidity;BME280_pressure;Samples;Min_cycle;Max_cycle;Signal;HPM_P1;HPM_P2
2023/07/25 00:00:47;;;;;;;14.10;3.72;;;;;;;16.04;100.00;100552.28;5116330;28;20088;-63
2023/07/25 00:03:14;;;;;;;12.07;3.60;;;;;;;16.01;100.00;100558.41;5115133;28;20070;-63
2023/07/25 00:05:42;;;;;;;8.23;3.10;;;;;;;16.01;100.00;100555.66;5111277;28;20040;-63
2023/07/25 00:08:10;;;;;;;7.72;3.03;;;;;;;16.04;100.00;100560.50;5101189;28;20076;-64
2023/07/25 00:10:37;;;;;;;10.98;3.20;;;;;;;16.05;100.00;100564.91;5095392;28;20044;-64
2023/07/25 00:13:05;;;;;;;7.07;2.90;;;;;;;16.06;100.00;100568.47;5095585;28;20059;-65
2023/07/25 00:15:33;;;;;;;7.95;3.60;;;;;;;16.04;100.00;100563.25;5071182;28;20119;-64
2023/07/25 00:18:01;;;;;;;12.68;3.95;;;;;;;16.01;100.00;100563.88;5094838;28;20048;-65
2023/07/25 00:20:28;;;;;;;14.07;3.78;;;;;;;15.96;100.00;100569.50;5094428;28;20400;-65
2023/07/25 00:22:56;;;;;;;9.40;3.55;;;;;;;15.90;100.00;100573.53;5077327;28;20052;-64
2023/07/25 00:25:24;;;;;;;9.15;3.97;;;;;;;15.88;100.00;100570.25;5092285;28;20051;-64
2023/07/25 00:27:52;;;;;;;10.55;3.45;;;;;;;15.86;100.00;100573.31;5113433;28;20039;-65
2023/07/25 00:30:20;;;;;;;8.38;3.50;;;;;;;15.83;100.00;100573.13;5115088;28;20046;-64
2023/07/25 00:32:48;;;;;;;10.40;3.75;;;;;;;15.81;100.00;100564.38;5115033;28;20073;-64
2023/07/25 00:35:16;;;;;;;8.90;3.42;;;;;;;15.76;100.00;100557.88;5114232;28;20043;-67
2023/07/25 00:37:44;;;;;;;9.90;3.50;;;;;;;15.73;100.00;100558.50;5114342;28;20059;-66
2023/07/25 00:40:12;;;;;;;7.40;3.78;;;;;;;15.69;100.00;100557.44;5097427;28;20051;-65
2023/07/25 00:42:40;;;;;;;10.15;3.42;;;;;;;15.67;100.00;100556.94;5114466;28;20568;-64
2023/07/25 00:45:08;;;;;;;8.25;3.60;;;;;;;15.66;100.00;100551.78;5113926;28;20047;-64
2023/07/25 00:47:36;;;;;;;13.20;4.03;;;;;;;15.65;100.00;100561.13;5113538;28;20057;-65
2023/07/25 00:50:04;;;;;;;10.77;3.63;;;;;;;15.61;100.00;100565.59;5097670;28;20055;-63
2023/07/25 00:52:32;;;;;;;7.63;3.35;;;;;;;15.58;100.00;100572.53;5114229;28;20050;-66
2023/07/25 00:55:00;;;;;;;9.23;3.58;;;;;;;15.58;100.00;100569.78;5113841;28;20040;-63
2023/07/25 00:57:30;;;;;;;9.73;3.70;;;;;;;15.57;100.00;100567.34;5093213;28;20480;-64
2023/07/25 00:59:58;;;;;;;10.68;3.88;;;;;;;15.59;100.00;100556.88;5094433;28;20044;-64
2023/07/25 01:02:26;;;;;;;11.40;3.97;;;;;;;15.57;100.00;100565.41;5094843;28;20047;-65
2023/07/25 01:04:54;;;;;;;9.00;3.45;;;;;;;15.60;100.00;100564.78;5092981;28;20048;-64
2023/07/25 01:07:22;;;;;;;8.85;3.63;;;;;;;15.62;100.00;100557.06;5083247;28;20035;-66
2023/07/25 01:09:50;;;;;;;10.50;3.50;;;;;;;15.67;100.00;100564.38;5112868;28;20039;-63
2023/07/25 01:12:17;;;;;;;8.35;3.30;;;;;;;15.67;100.00;100565.19;5115064;28;20047;-64
2023/07/25 01:14:45;;;;;;;6.95;3.47;;;;;;;15.67;100.00;100553.38;5113691;28;20055;-64
2023/07/25 01:17:17;;;;;;;7.07;3.40;;;;;;;15.66;100.00;100557.28;5112608;28;20093;-66
2023/07/25 01:19:48;;;;;;;12.95;3.65;;;;;;;15.64;100.00;100560.31;5113431;28;20054;-64
2023/07/25 01:22:16;;;;;;;8.68;3.60;;;;;;;15.64;100.00;100556.75;5115011;28;20050;-65
2023/07/25 01:24:46;;;;;;;8.13;3.88;;;;;;;15.62;100.00;100556.25;5114580;28;20449;-64
2023/07/25 01:27:15;;;;;;;9.07;3.42;;;;;;;15.60;100.00;100553.81;5080083;28;20486;-64
2023/07/25 01:29:43;;;;;;;7.18;3.25;;;;;;;15.60;100.00;100551.06;5101153;28;20040;-65
2023/07/25 01:32:11;;;;;;;7.25;3.30;;;;;;;15.62;100.00;100554.31;5069995;28;20058;-63
2023/07/25 01:34:39;;;;;;;10.73;3.85;;;;;;;15.62;100.00;100546.06;5104914;28;20050;-64
2023/07/25 01:37:07;;;;;;;9.80;3.58;;;;;;;15.60;100.00;100542.81;5095363;28;20062;-64
2023/07/25 01:39:35;;;;;;;10.73;3.75;;;;;;;15.60;100.00;100540.06;5114644;28;20051;-65
2023/07/25 01:42:03;;;;;;;8.65;3.03;;;;;;;15.60;100.00;100542.00;5113436;28;20101;-64
2023/07/25 01:44:31;;;;;;;10.70;3.80;;;;;;;15.60;100.00;100539.25;5114682;28;20050;-64
2023/07/25 01:46:59;;;;;;;9.68;3.55;;;;;;;15.59;100.00;100552.19;5096154;28;20051;-64
2023/07/25 01:49:27;;;;;;;9.35;3.50;;;;;;;15.58;100.00;100550.53;5114313;28;20143;-64
2023/07/25 01:51:54;;;;;;;7.90;3.35;;;;;;;15.56;100.00;100552.78;5114458;28;20039;-65
2023/07/25 01:54:23;;;;;;;10.57;3.85;;;;;;;15.53;100.00;100548.72;5114493;28;20035;-65
2023/07/25 01:56:50;;;;;;;8.60;3.72;;;;;;;15.50;100.00;100543.84;5113850;28;20043;-64
2023/07/25 01:59:19;;;;;;;10.48;4.18;;;;;;;15.46;100.00;100539.28;5104980;28;20046;-64
2023/07/25 02:01:47;;;;;;;8.85;3.70;;;;;;;15.45;100.00;100532.19;5106037;28;20051;-65
2023/07/25 02:04:15;;;;;;;16.35;4.05;;;;;;;15.45;100.00;100529.44;5115206;28;20499;-65
2023/07/25 02:06:43;;;;;;;12.18;3.85;;;;;;;15.44;100.00;100519.56;5122955;28;20142;-64
2023/07/25 02:09:10;;;;;;;11.10;3.92;;;;;;;15.41;100.00;100529.22;5125045;28;20563;-63
2023/07/25 02:11:38;;;;;;;9.27;3.88;;;;;;;15.39;100.00;100525.16;5131588;27;20043;-65
2023/07/25 02:14:06;;;;;;;7.68;3.67;;;;;;;15.38;100.00;100523.56;5118328;28;20039;-62
2023/07/25 02:16:36;;;;;;;10.40;4.10;;;;;;;15.40;100.00;100524.06;5115153;28;20140;-65
2023/07/25 02:19:04;;;;;;;10.32;3.15;;;;;;;15.40;100.00;100529.56;5098605;28;20092;-63
2023/07/25 02:21:32;;;;;;;8.15;3.63;;;;;;;15.40;100.00;100521.31;5114544;28;20056;-64
2023/07/25 02:24:00;;;;;;;7.57;3.53;;;;;;;15.40;100.00;100522.13;5120227;28;20445;-65
2023/07/25 02:26:28;;;;;;;8.65;4.15;;;;;;;15.39;100.00;100527.91;5118604;28;20088;-65
2023/07/25 02:28:57;;;;;;;8.82;3.80;;;;;;;15.38;100.00;100524.34;5114926;28;20039;-65
2023/07/25 02:31:24;;;;;;;10.25;4.10;;;;;;;15.37;100.00;100521.91;5118617;28;20052;-65
2023/07/25 02:33:52;;;;;;;7.78;3.47;;;;;;;15.36;100.00;100525.78;5120388;28;20051;-65
2023/07/25 02:36:20;;;;;;;9.35;4.10;;;;;;;15.34;100.00;100524.16;5119421;28;20495;-64
2023/07/25 02:38:48;;;;;;;10.43;3.67;;;;;;;15.33;100.00;100527.22;5118847;27;20044;-64
2023/07/25 02:41:17;;;;;;;8.50;3.42;;;;;;;15.30;100.00;100516.84;5119346;28;20090;-64
2023/07/25 02:43:45;;;;;;;8.43;3.90;;;;;;;15.31;100.00;100519.28;5120389;28;20506;-65
2023/07/25 02:46:13;;;;;;;11.10;4.60;;;;;;;15.30;100.00;100519.59;5119518;27;20039;-64
2023/07/25 02:48:41;;;;;;;9.43;4.13;;;;;;;15.25;100.00;100520.53;5119794;28;20481;-64
2023/07/25 02:51:09;;;;;;;8.95;4.00;;;;;;;15.21;100.00;100516.75;5120382;27;20043;-66
2023/07/25 02:53:37;;;;;;;7.55;3.63;;;;;;;15.19;100.00;100527.22;5113929;28;20112;-65
2023/07/25 02:56:05;;;;;;;9.93;3.70;;;;;;;15.16;100.00;100530.59;5099397;28;20048;-66
2023/07/25 02:58:33;;;;;;;12.35;4.40;;;;;;;15.12;100.00;100526.81;5100102;28;20052;-64
2023/07/25 03:01:00;;;;;;;11.18;3.80;;;;;;;15.10;100.00;100524.41;5100027;28;20468;-64
2023/07/25 03:03:28;;;;;;;10.48;4.05;;;;;;;15.11;100.00;100520.53;5117463;28;20051;-63
2023/07/25 03:05:57;;;;;;;9.35;4.40;;;;;;;15.11;100.00;100522.47;5120223;27;20043;-64
2023/07/25 03:08:25;;;;;;;13.00;4.50;;;;;;;15.11;100.00;100516.97;5118917;28;20047;-64
2023/07/25 03:10:52;;;;;;;10.45;4.35;;;;;;;15.12;100.00;100518.59;5119215;28;20096;-65
2023/07/25 03:13:20;;;;;;;9.60;3.60;;;;;;;15.12;100.00;100521.34;5118864;28;20050;-64
2023/07/25 03:15:48;;;;;;;12.38;4.97;;;;;;;15.09;100.00;100522.75;5119047;28;20096;-65
2023/07/25 03:18:16;;;;;;;10.43;4.50;;;;;;;15.05;100.00;100527.22;5119390;28;20095;-64
2023/07/25 03:20:43;;;;;;;11.95;4.72;;;;;;;15.02;100.00;100530.59;5119344;28;20048;-64
2023/07/25 03:23:11;;;;;;;13.52;4.60;;;;;;;14.99;100.00;100527.66;5120283;28;20054;-65
2023/07/25 03:25:39;;;;;;;15.60;4.57;;;;;;;14.95;100.00;100521.94;5119665;28;20407;-65
2023/07/25 03:28:07;;;;;;;11.70;4.47;;;;;;;14.94;100.00;100520.34;5120433;28;20043;-64
2023/07/25 03:30:35;;;;;;;11.13;4.35;;;;;;;14.92;100.00;100517.06;5136459;27;20074;-65
2023/07/25 03:33:03;;;;;;;8.52;4.13;;;;;;;14.90;100.00;100517.38;5118745;27;20113;-65
2023/07/25 03:35:31;;;;;;;9.98;4.30;;;;;;;14.89;100.00;100524.00;5112190;28;20043;-65
2023/07/25 03:38:00;;;;;;;9.32;4.57;;;;;;;14.88;100.00;100524.28;5115678;28;20093;-65
2023/07/25 03:40:28;;;;;;;9.70;3.90;;;;;;;14.85;100.00;100520.22;5116484;28;20507;-64
2023/07/25 03:42:56;;;;;;;8.93;4.40;;;;;;;14.85;100.00;100517.47;5115269;28;20055;-65
2023/07/25 03:45:23;;;;;;;11.85;4.80;;;;;;;14.83;100.00;100508.72;5115711;28;20047;-65
2023/07/25 03:47:52;;;;;;;10.38;4.85;;;;;;;14.82;100.00;100509.06;5114427;28;20062;-65
2023/07/25 03:50:20;;;;;;;11.50;4.60;;;;;;;14.81;100.00;100516.44;5115394;28;20043;-64
2023/07/25 03:52:48;;;;;;;12.23;4.60;;;;;;;14.79;100.00;100513.22;5115898;28;20050;-64
2023/07/25 03:55:16;;;;;;;13.30;4.75;;;;;;;14.76;100.00;100513.81;5116502;28;20092;-64
2023/07/25 03:57:44;;;;;;;8.90;4.30;;;;;;;14.78;100.00;100511.56;5097467;28;20047;-63
2023/07/25 04:00:12;;;;;;;8.77;4.40;;;;;;;14.83;100.00;100507.94;5115843;28;20398;-63
2023/07/25 04:02:40;;;;;;;9.23;3.88;;;;;;;14.81;100.00;100516.44;5116364;28;20051;-64
2023/07/25 04:05:08;;;;;;;11.45;4.80;;;;;;;14.83;100.00;100514.22;5116401;28;20044;-65
2023/07/25 04:07:36;;;;;;;10.18;4.00;;;;;;;14.85;100.00;100516.66;5114554;28;20035;-65
2023/07/25 04:10:04;;;;;;;10.15;4.00;;;;;;;14.86;100.00;100508.16;5115156;28;20035;-64
2023/07/25 04:12:32;;;;;;;11.60;4.60;;;;;;;14.87;100.00;100503.47;5114940;28;20391;-65
2023/07/25 04:14:59;;;;;;;9.10;3.78;;;;;;;14.90;100.00;100509.13;5116224;28;20044;-65
2023/07/25 04:17:27;;;;;;;7.68;3.80;;;;;;;14.96;100.00;100517.25;5115082;28;20503;-63
2023/07/25 04:19:55;;;;;;;7.68;3.42;;;;;;;15.00;100.00;100513.59;5114939;28;20051;-64
2023/07/25 04:22:23;;;;;;;8.45;3.50;;;;;;;15.04;100.00;100511.09;5111577;28;20341;-65
2023/07/25 04:24:51;;;;;;;11.48;4.50;;;;;;;15.03;100.00;100513.03;5094941;28;20055;-65
2023/07/25 04:27:18;;;;;;;11.05;4.63;;;;;;;15.01;100.00;100511.66;5095607;28;20047;-64
2023/07/25 04:29:46;;;;;;;12.15;4.68;;;;;;;14.96;100.00;100511.78;5110011;28;20166;-64
2023/07/25 04:32:14;;;;;;;13.30;5.30;;;;;;;14.93;100.00;100520.63;5114592;28;20058;-66
2023/07/25 04:34:42;;;;;;;13.07;4.85;;;;;;;14.89;100.00;100526.72;5115549;28;20048;-64
2023/07/25 04:37:10;;;;;;;8.25;4.05;;;;;;;14.86;100.00;100524.59;5115644;28;20059;-65
2023/07/25 04:39:37;;;;;;;10.63;4.65;;;;;;;14.85;100.00;100527.63;5112564;28;20047;-65
2023/07/25 04:42:06;;;;;;;10.77;5.28;;;;;;;14.80;100.00;100520.31;5092988;28;20048;-64
2023/07/25 04:44:34;;;;;;;9.70;4.13;;;;;;;14.75;100.00;100517.69;5113870;28;20052;-65
2023/07/25 04:47:02;;;;;;;10.35;4.60;;;;;;;14.76;100.00;100527.53;5111826;28;20491;-65
2023/07/25 04:49:29;;;;;;;9.55;4.75;;;;;;;14.78;100.00;100529.97;5094290;28;20484;-64
2023/07/25 04:51:57;;;;;;;11.02;5.22;;;;;;;14.77;100.00;100531.06;5080900;28;20488;-65
2023/07/25 04:54:25;;;;;;;9.82;4.28;;;;;;;14.80;100.00;100525.00;5113340;28;20047;-65
2023/07/25 04:56:52;;;;;;;11.80;4.68;;;;;;;14.78;100.00;100521.75;5115445;28;20068;-64
2023/07/25 04:59:20;;;;;;;11.60;4.80;;;;;;;14.78;100.00;100528.03;5113943;28;20050;-65
2023/07/25 05:01:48;;;;;;;13.32;4.28;;;;;;;14.75;100.00;100527.84;5113451;28;20050;-63
2023/07/25 05:04:16;;;;;;;12.45;4.88;;;;;;;14.76;100.00;100519.28;5113657;28;20039;-65
2023/07/25 05:06:44;;;;;;;12.13;4.65;;;;;;;14.80;100.00;100522.25;5114769;28;20048;-64
2023/07/25 05:09:12;;;;;;;12.23;6.03;;;;;;;14.83;100.00;100525.19;5113971;28;20051;-63
2023/07/25 05:11:40;;;;;;;10.00;5.38;;;;;;;14.81;100.00;100521.94;5114558;28;20035;-65
2023/07/25 05:14:08;;;;;;;13.00;5.53;;;;;;;14.79;100.00;100521.44;5112234;28;20051;-64
2023/07/25 05:16:35;;;;;;;13.88;6.25;;;;;;;14.76;100.00;100524.78;5112792;28;20058;-64
2023/07/25 05:19:03;;;;;;;14.13;5.90;;;;;;;14.72;100.00;100523.78;5115142;28;20487;-64
2023/07/25 05:21:31;;;;;;;13.20;5.95;;;;;;;14.73;100.00;100521.84;5114076;28;20054;-67
2023/07/25 05:23:59;;;;;;;11.02;5.95;;;;;;;14.73;100.00;100524.59;5111113;28;20039;-62
2023/07/25 05:26:27;;;;;;;15.73;6.68;;;;;;;14.77;100.00;100523.69;5112725;28;20510;-65
2023/07/25 05:28:56;;;;;;;12.00;5.70;;;;;;;14.77;100.00;100523.69;5116748;28;20047;-65
2023/07/25 05:31:24;;;;;;;14.23;6.40;;;;;;;14.81;100.00;100532.09;5118127;28;20036;-64
2023/07/25 05:33:52;;;;;;;14.15;6.55;;;;;;;14.83;100.00;100527.94;5112394;28;20111;-66
2023/07/25 05:36:19;;;;;;;13.20;6.43;;;;;;;14.84;100.00;100526.84;5112636;28;20055;-66
2023/07/25 05:38:47;;;;;;;12.10;5.55;;;;;;;14.84;100.00;100526.84;5093807;28;20052;-66
2023/07/25 05:41:15;;;;;;;13.53;6.23;;;;;;;14.84;100.00;100521.34;4387028;28;10000793;-66
2023/07/25 05:43:43;;;;;;;15.43;5.70;;;;;;;14.85;100.00;100535.88;5102599;28;20046;-65
2023/07/25 05:46:12;;;;;;;15.10;5.85;;;;;;;14.85;100.00;100533.94;5111715;28;20051;-64
2023/07/25 05:48:40;;;;;;;15.55;5.72;;;;;;;14.87;100.00;100533.63;5113219;28;20601;-65
2023/07/25 05:51:09;;;;;;;12.02;5.90;;;;;;;14.81;100.00;100527.41;5113264;28;20039;-66
2023/07/25 05:53:37;;;;;;;14.32;5.50;;;;;;;14.79;100.00;100535.16;5111235;28;20048;-64
2023/07/25 05:56:05;;;;;;;13.25;5.25;;;;;;;14.81;100.00;100543.88;5110447;28;20498;-64
2023/07/25 05:58:32;;;;;;;11.35;4.70;;;;;;;14.79;100.00;100546.13;5113566;28;20051;-64
2023/07/25 06:01:00;;;;;;;15.40;4.57;;;;;;;14.77;100.00;100551.09;5110774;28;20114;-66
2023/07/25 06:03:28;;;;;;;15.45;4.85;;;;;;;14.76;100.00;100554.94;5109232;28;20155;-64
2023/07/25 06:05:56;;;;;;;11.85;4.43;;;;;;;14.79;100.00;100543.38;5096699;28;20124;-67
2023/07/25 06:08:24;;;;;;;12.82;4.65;;;;;;;14.84;100.00;100548.78;5090543;28;20052;-64
2023/07/25 06:10:51;;;;;;;12.77;4.50;;;;;;;14.87;100.00;100553.66;5088591;28;20055;-66
2023/07/25 06:13:20;;;;;;;15.18;4.53;;;;;;;14.87;100.00;100553.66;5091029;28;20416;-65
2023/07/25 06:15:49;;;;;;;15.07;4.75;;;;;;;14.84;100.00;100548.78;5108666;28;20040;-65
2023/07/25 06:18:17;;;;;;;12.75;4.90;;;;;;;14.82;100.00;100561.97;5114383;28;20044;-63
2023/07/25 06:20:48;;;;;;;13.93;5.13;;;;;;;14.83;100.00;100560.84;5111553;28;20089;-63
2023/07/25 06:23:15;;;;;;;8.73;4.32;;;;;;;14.79;100.00;100551.63;5114497;28;20132;-63
2023/07/25 06:25:43;;;;;;;13.98;5.00;;;;;;;14.80;100.00;100549.69;5115238;28;20043;-62
2023/07/25 06:28:14;;;;;;;8.52;3.92;;;;;;;14.85;100.00;100544.09;5088202;28;20126;-63
2023/07/25 06:30:43;;;;;;;13.05;4.78;;;;;;;14.88;100.00;100552.53;5126581;28;20069;-64
2023/07/25 06:33:13;;;;;;;9.88;4.60;;;;;;;14.85;100.00;100546.84;5110437;28;20044;-63
2023/07/25 06:35:41;;;;;;;16.20;5.15;;;;;;;14.76;100.00;100543.97;5107642;28;20040;-64
2023/07/25 06:38:09;;;;;;;14.20;5.13;;;;;;;14.78;100.00;100549.97;5124642;28;20114;-63
2023/07/25 06:40:37;;;;;;;14.00;5.18;;;;;;;14.76;100.00;100552.19;5123606;28;20099;-63
2023/07/25 06:43:05;;;;;;;12.75;4.90;;;;;;;14.78;100.00;100549.97;5125897;28;20065;-63
2023/07/25 06:45:33;;;;;;;13.05;4.82;;;;;;;14.82;100.00;100551.00;5099469;28;20044;-63
2023/07/25 06:48:01;;;;;;;12.48;4.93;;;;;;;14.87;100.00;100559.13;5107617;28;20043;-64
2023/07/25 06:50:32;;;;;;;11.25;4.70;;;;;;;14.94;100.00;100558.75;5108133;28;20051;-63
2023/07/25 06:53:00;;;;;;;12.40;4.38;;;;;;;14.90;100.00;100557.72;5094743;28;20044;-63
2023/07/25 06:55:28;;;;;;;10.73;4.47;;;;;;;14.88;100.00;100558.00;5113644;28;20044;-65
2023/07/25 06:57:55;;;;;;;12.63;4.20;;;;;;;14.91;100.00;100559.31;5112522;28;20441;-65
2023/07/25 07:00:23;;;;;;;12.13;4.43;;;;;;;14.92;100.00;100552.75;5115028;28;20044;-63
2023/07/25 07:02:51;;;;;;;14.20;3.80;;;;;;;14.96;100.00;100563.91;5112481;28;20046;-64
2023/07/25 07:05:19;;;;;;;15.40;4.20;;;;;;;15.01;100.00;100559.16;5113262;28;20054;-63
2023/07/25 07:07:57;;;;;;;15.43;4.07;;;;;;;15.10;100.00;100562.81;5096292;28;20051;-63
2023/07/25 07:10:24;;;;;;;10.10;3.67;;;;;;;15.17;100.00;100565.13;5116401;28;20055;-64
2023/07/25 07:12:53;;;;;;;15.30;3.95;;;;;;;15.22;100.00;100567.78;5117497;28;20093;-65
2023/07/25 07:15:24;;;;;;;11.45;3.65;;;;;;;15.30;100.00;100567.06;5117449;28;20047;-65
2023/07/25 07:17:52;;;;;;;18.98;4.28;;;;;;;15.38;100.00;100573.78;5116719;28;20040;-64
2023/07/25 07:20:21;;;;;;;15.35;4.18;;;;;;;15.34;100.00;100570.00;5111848;28;20058;-66
2023/07/25 07:22:49;;;;;;;13.60;3.63;;;;;;;15.30;100.00;100567.06;5095650;28;20043;-64
2023/07/25 07:25:16;;;;;;;12.45;3.88;;;;;;;15.32;100.00;100564.84;5114131;28;20407;-65
2023/07/25 07:27:44;;;;;;;13.27;3.72;;;;;;;15.29;100.00;100568.16;5110796;28;20055;-64
2023/07/25 07:30:12;;;;;;;12.60;3.28;;;;;;;15.33;100.00;100574.69;5106357;28;20055;-66
2023/07/25 07:32:40;;;;;;;14.15;3.45;;;;;;;15.39;100.00;100574.56;5116487;28;20044;-62
2023/07/25 07:35:08;;;;;;;11.70;2.92;;;;;;;15.41;100.00;100572.34;5116876;28;20050;-64
2023/07/25 07:37:37;;;;;;;9.57;3.10;;;;;;;15.46;100.00;100577.72;5117154;28;20051;-64
2023/07/25 07:40:05;;;;;;;13.25;3.05;;;;;;;15.48;100.00;100573.56;5118143;28;20501;-64
2023/07/25 07:42:33;;;;;;;12.75;3.00;;;;;;;15.48;100.00;100580.97;5099543;28;20479;-64
2023/07/25 07:45:01;;;;;;;12.18;3.20;;;;;;;15.48;100.00;100589.22;5116233;28;20054;-65
2023/07/25 07:47:28;;;;;;;14.32;3.00;;;;;;;15.49;98.97;100597.16;5115481;28;20044;-64
2023/07/25 07:49:56;;;;;;;14.18;3.45;;;;;;;15.58;100.00;100593.69;5109438;28;20056;-65
2023/07/25 07:52:24;;;;;;;9.63;3.10;;;;;;;15.60;99.45;100595.00;5114604;28;20096;-64
2023/07/25 07:55:10;;;;;;;13.57;3.05;;;;;;;15.61;100.00;100588.41;5116449;28;20050;-64
2023/07/25 07:57:42;;;;;;;10.32;2.72;;;;;;;15.68;99.32;100588.78;5116083;28;20044;-63
2023/07/25 08:00:11;;;;;;;10.80;2.63;;;;;;;15.72;99.38;100589.81;5115819;28;20047;-63
2023/07/25 08:02:39;;;;;;;6.70;2.40;;;;;;;15.73;98.46;100605.19;5097934;28;20048;-63
2023/07/25 08:05:07;;;;;;;8.23;2.40;;;;;;;15.69;98.17;100606.88;5115829;28;20051;-62
2023/07/25 08:07:35;;;;;;;11.68;2.92;;;;;;;15.69;98.88;100606.09;5116818;28;20526;-62
2023/07/25 08:10:04;;;;;;;7.28;2.55;;;;;;;15.64;97.46;100612.50;5115567;28;20062;-62
2023/07/25 08:12:32;;;;;;;10.13;2.85;;;;;;;15.61;96.70;100609.53;5115203;28;20054;-64
2023/07/25 08:15:00;;;;;;;8.95;2.47;;;;;;;15.61;96.66;100613.13;5116128;28;20068;-65
2023/07/25 08:17:28;;;;;;;9.00;2.55;;;;;;;15.61;97.16;100613.13;5115347;28;20059;-64
2023/07/25 08:19:56;;;;;;;9.13;2.35;;;;;;;15.61;97.91;100612.28;5115925;28;20043;-64
2023/07/25 08:22:24;;;;;;;8.23;2.70;;;;;;;15.62;97.52;100622.97;5095199;28;20055;-64
2023/07/25 08:24:53;;;;;;;10.00;2.70;;;;;;;15.64;97.23;100617.19;5115893;28;20119;-65
2023/07/25 08:27:21;;;;;;;9.95;2.60;;;;;;;15.64;96.00;100623.47;5116523;28;20453;-63
2023/07/25 08:29:49;;;;;;;10.48;2.30;;;;;;;15.62;96.00;100616.66;5112921;28;20039;-64
2023/07/25 08:32:17;;;;;;;7.45;2.47;;;;;;;15.66;96.45;100613.00;5115346;28;20108;-65
2023/07/25 08:34:45;;;;;;;12.35;2.83;;;;;;;15.77;96.02;100621.84;5114695;28;20093;-64
2023/07/25 08:37:13;;;;;;;8.50;2.22;;;;;;;15.82;92.53;100620.94;5114784;28;20059;-65
2023/07/25 08:39:41;;;;;;;7.35;2.40;;;;;;;15.87;93.67;100618.06;5115713;28;20070;-63
2023/07/25 08:42:11;;;;;;;8.40;2.33;;;;;;;15.94;94.16;100619.28;5115927;28;20043;-63
2023/07/25 08:44:40;;;;;;;7.47;2.40;;;;;;;16.04;93.26;100629.22;5115737;28;20384;-64
2023/07/25 08:47:18;;;;;;;10.32;2.72;;;;;;;16.12;92.98;100623.00;5114383;28;20054;-64
2023/07/25 08:49:47;;;;;;;12.73;2.70;;;;;;;16.21;91.21;100619.50;5100576;28;20056;-65
2023/07/25 08:52:17;;;;;;;13.95;2.88;;;;;;;16.23;91.35;100623.56;5100689;28;20556;-64
2023/07/25 08:54:48;;;;;;;9.80;2.90;;;;;;;16.30;91.14;100634.13;5099392;28;20047;-64
2023/07/25 08:57:18;;;;;;;8.23;2.28;;;;;;;16.36;92.23;100636.47;5094711;28;20052;-66
2023/07/25 08:59:50;;;;;;;13.30;3.20;;;;;;;16.38;89.22;100638.91;5113288;28;20047;-67
2023/07/25 09:02:18;;;;;;;9.48;2.60;;;;;;;16.33;88.25;100637.09;5115527;28;20388;-63
2023/07/25 09:04:47;;;;;;;10.57;2.20;;;;;;;16.24;88.57;100638.16;5112643;28;20499;-64
2023/07/25 09:07:15;;;;;;;9.60;2.80;;;;;;;16.12;89.88;100647.75;5097906;28;20055;-65
2023/07/25 09:09:42;;;;;;;12.95;2.60;;;;;;;16.09;89.87;100647.53;5096593;28;20046;-64
2023/07/25 09:12:10;;;;;;;11.63;2.85;;;;;;;16.09;90.63;100647.53;5114345;28;20054;-64
2023/07/25 09:14:39;;;;;;;6.95;2.33;;;;;;;16.11;90.97;100642.53;5112102;28;20403;-64
2023/07/25 09:17:07;;;;;;;5.38;2.33;;;;;;;16.15;90.71;100646.31;5114780;28;20044;-64
2023/07/25 09:19:35;;;;;;;7.18;2.13;;;;;;;16.22;90.89;100651.38;5115140;28;20051;-65
2023/07/25 09:22:03;;;;;;;8.43;2.30;;;;;;;16.30;90.02;100653.38;5114396;28;20051;-64
2023/07/25 09:24:38;;;;;;;8.50;2.67;;;;;;;16.35;89.87;100642.25;5112851;28;20052;-65
2023/07/25 09:27:17;;;;;;;11.23;2.55;;;;;;;16.48;90.42;100644.16;5103796;28;20081;-64
2023/07/25 09:29:46;;;;;;;9.32;2.50;;;;;;;16.59;89.25;100651.00;5113942;28;20040;-65
2023/07/25 09:32:24;;;;;;;9.60;2.75;;;;;;;16.54;86.70;100651.16;5113944;28;20487;-65
2023/07/25 09:34:59;;;;;;;7.95;2.70;;;;;;;16.48;86.75;100652.41;5105295;28;20422;-65
2023/07/25 09:37:29;;;;;;;8.52;2.50;;;;;;;16.44;85.55;100651.41;5114066;28;20063;-64
2023/07/25 09:39:57;;;;;;;7.63;2.38;;;;;;;16.51;84.95;100646.28;5115770;28;20051;-62
2023/07/25 09:42:27;;;;;;;11.90;2.70;;;;;;;16.61;84.11;100656.22;5118025;28;20052;-63
2023/07/25 09:44:56;;;;;;;7.57;2.22;;;;;;;16.76;83.56;100655.03;5113865;28;20052;-65
2023/07/25 09:47:26;;;;;;;11.35;2.30;;;;;;;16.83;82.08;100656.22;5114486;28;20050;-63
2023/07/25 09:49:55;;;;;;;12.05;3.50;;;;;;;16.81;81.57;100660.41;5109702;28;20052;-64
2023/07/25 09:52:23;;;;;;;10.68;3.50;;;;;;;16.78;82.19;100658.28;5096151;28;20049;-65
2023/07/25 09:54:51;;;;;;;11.65;2.20;;;;;;;16.72;79.66;100656.78;5113994;28;20035;-66
2023/07/25 09:57:19;;;;;;;5.93;2.50;;;;;;;16.64;81.19;100652.84;5113582;28;20050;-68
2023/07/25 09:59:49;;;;;;;7.22;2.05;;;;;;;16.64;78.98;100654.78;5109570;28;20043;-65
2023/07/25 10:02:17;;;;;;;7.80;2.50;;;;;;;16.70;77.97;100659.03;5112362;28;20055;-64
2023/07/25 10:04:47;;;;;;;10.63;2.67;;;;;;;16.72;79.38;100659.53;5114557;28;20117;-65
2023/07/25 10:07:15;;;;;;;9.52;2.53;;;;;;;16.74;79.98;100651.75;5094870;28;20043;-65
2023/07/25 10:09:46;;;;;;;9.85;2.42;;;;;;;16.84;76.67;100646.06;5113804;28;20039;-66
2023/07/25 10:12:14;;;;;;;5.28;2.10;;;;;;;16.88;73.94;100655.28;5113593;28;20046;-64
2023/07/25 10:14:41;;;;;;;6.65;2.72;;;;;;;16.96;74.12;100646.28;5114446;28;20133;-63
2023/07/25 10:17:09;;;;;;;8.73;2.08;;;;;;;17.10;76.49;100642.63;5112796;28;20047;-62
2023/07/25 10:19:53;;;;;;;9.02;2.50;;;;;;;17.15;75.69;100646.06;4373370;28;9999993;-65
2023/07/25 10:22:38;;;;;;;9.70;2.30;;;;;;;17.09;74.38;100646.50;5090349;28;20044;-67
2023/07/25 10:25:21;;;;;;;5.75;2.22;;;;;;;17.01;75.05;100648.91;5089143;28;20644;-66
2023/07/25 10:27:59;;;;;;;8.13;2.45;;;;;;;16.95;72.94;100657.59;5102028;28;20040;-67
2023/07/25 10:30:33;;;;;;;7.22;1.90;;;;;;;16.90;72.29;100666.78;5109526;28;20100;-66
2023/07/25 10:33:04;;;;;;;7.28;2.17;;;;;;;16.79;70.90;100665.44;5127239;28;20051;-66
2023/07/25 10:35:42;;;;;;;7.32;2.00;;;;;;;16.70;70.14;100668.09;5109747;28;20043;-66
2023/07/25 10:38:12;;;;;;;5.45;2.08;;;;;;;16.64;69.94;100660.28;5108944;28;20060;-66
2023/07/25 10:40:55;;;;;;;8.60;2.10;;;;;;;16.60;70.16;100666.41;5111019;28;20059;-67
2023/07/25 10:43:28;;;;;;;4.85;1.75;;;;;;;16.65;71.09;100659.16;5111391;28;20713;-65
2023/07/25 10:45:59;;;;;;;8.88;2.22;;;;;;;16.72;72.38;100670.56;5111464;28;20043;-65
2023/07/25 10:48:35;;;;;;;5.40;1.80;;;;;;;16.78;69.98;100658.28;5101692;28;20147;-66
2023/07/25 10:51:06;;;;;;;8.85;1.90;;;;;;;16.82;70.05;100664.81;5113970;28;20049;-68
2023/07/25 10:53:34;;;;;;;7.47;1.83;;;;;;;16.81;69.76;100655.75;5111952;28;20089;-66
2023/07/25 10:56:03;;;;;;;6.28;1.70;;;;;;;16.84;68.80;100646.06;5116518;28;20051;-65
2023/07/25 10:59:02;;;;;;;7.65;1.70;;;;;;;16.87;70.37;100645.41;5098745;28;20050;-64
2023/07/25 11:01:46;;;;;;;6.20;2.15;;;;;;;17.00;68.49;100644.53;5103989;28;20392;-65
2023/07/25 11:04:30;;;;;;;6.03;2.10;;;;;;;17.08;67.46;100648.47;5116911;28;20036;-66
2023/07/25 11:07:13;;;;;;;7.53;2.17;;;;;;;17.09;65.54;100650.06;5124128;28;20297;-64
2023/07/25 11:09:42;;;;;;;8.85;1.88;;;;;;;17.06;66.04;100647.16;5112492;28;20119;-63
2023/07/25 11:12:11;;;;;;;5.95;1.75;;;;;;;17.00;65.53;100650.03;5117092;28;20040;-63
2023/07/25 11:14:43;;;;;;;7.55;2.05;;;;;;;17.07;65.39;100659.78;5114387;28;20046;-65
2023/07/25 11:17:12;;;;;;;7.55;2.10;;;;;;;17.19;62.50;100646.22;5118069;28;20062;-64
2023/07/25 11:19:40;;;;;;;7.47;2.30;;;;;;;17.27;63.77;100659.25;5117786;28;20051;-64
2023/07/25 11:22:09;;;;;;;7.30;2.05;;;;;;;17.37;61.90;100658.94;5117545;28;20040;-64